createdAt,value
2018-11-25T00:00:37.936Z,1001.73
2018-11-25T00:01:18.387Z,1001.7
2018-11-25T00:01:58.729Z,1001.72
2018-11-25T00:02:39.393Z,1001.72
2018-11-25T00:03:19.722Z,1001.74
2018-11-25T00:04:00.272Z,1001.72
2018-11-25T00:04:40.604Z,1001.7
2018-11-25T00:05:21.090Z,1001.73
2018-11-25T00:06:01.943Z,1001.72
2018-11-25T00:06:42.671Z,1001.71
2018-11-25T00:07:22.904Z,1001.66
2018-11-25T00:08:03.303Z,1001.65
2018-11-25T00:08:43.672Z,1001.65
2018-11-25T00:09:24.139Z,1001.67
2018-11-25T00:10:04.683Z,1001.67
2018-11-25T00:10:44.956Z,1001.67
2018-11-25T00:11:25.368Z,1001.67
2018-11-25T00:12:05.802Z,1001.7
2018-11-25T00:12:46.221Z,1001.73
2018-11-25T00:13:26.659Z,1001.71
2018-11-25T00:14:06.951Z,1001.73
2018-11-25T00:14:47.393Z,1001.7
2018-11-25T00:15:27.765Z,1001.73
2018-11-25T00:16:08.134Z,1001.73
2018-11-25T00:16:48.594Z,1001.73
2018-11-25T00:17:28.972Z,1001.75
2018-11-25T00:18:09.283Z,1001.72
2018-11-25T00:18:49.720Z,1001.73
2018-11-25T00:19:30.117Z,1001.75
2018-11-25T00:20:10.450Z,1001.7
2018-11-25T00:20:50.916Z,1001.75
2018-11-25T00:21:31.215Z,1001.72
2018-11-25T00:22:11.701Z,1001.69
2018-11-25T00:22:52.109Z,1001.71
2018-11-25T00:23:32.552Z,1001.69
2018-11-25T00:24:12.812Z,1001.71
2018-11-25T00:24:53.264Z,1001.68
2018-11-25T00:25:33.696Z,1001.65
2018-11-25T00:26:14.170Z,1001.68
2018-11-25T00:26:54.530Z,1001.7
2018-11-25T00:27:34.957Z,1001.7
2018-11-25T00:28:15.449Z,1001.65
2018-11-25T00:28:55.813Z,1001.67
2018-11-25T00:29:36.179Z,1001.66
2018-11-25T00:30:16.627Z,1001.65
2018-11-25T00:30:57.106Z,1001.64
2018-11-25T00:31:37.480Z,1001.66
2018-11-25T00:32:17.902Z,1001.65
2018-11-25T00:32:58.267Z,1001.67
2018-11-25T00:33:38.740Z,1001.65
2018-11-25T00:34:19.140Z,1001.61
2018-11-25T00:34:59.471Z,1001.6
2018-11-25T00:35:39.947Z,1001.62
2018-11-25T00:36:20.316Z,1001.6
2018-11-25T00:37:00.762Z,1001.59
2018-11-25T00:37:47.904Z,1001.62
2018-11-25T00:38:21.468Z,1001.57
2018-11-25T00:39:01.852Z,1001.59
2018-11-25T00:39:42.224Z,1001.57
2018-11-25T00:40:22.678Z,1001.57
2018-11-25T00:41:03.090Z,1001.54
2018-11-25T00:41:43.447Z,1001.52
2018-11-25T00:42:23.863Z,1001.52
2018-11-25T00:43:04.278Z,1001.51
2018-11-25T00:43:44.652Z,1001.48
2018-11-25T00:44:25.063Z,1001.52
2018-11-25T00:45:05.512Z,1001.52
2018-11-25T00:45:45.970Z,1001.5
2018-11-25T00:46:26.296Z,1001.49
2018-11-25T00:47:06.694Z,1001.48
2018-11-25T00:47:47.137Z,1001.48
2018-11-25T00:48:27.531Z,1001.47
2018-11-25T00:49:07.886Z,1001.49
2018-11-25T00:49:48.370Z,1001.44
2018-11-25T00:50:28.701Z,1001.45
2018-11-25T00:51:09.103Z,1001.44
2018-11-25T00:51:49.521Z,1001.41
2018-11-25T00:52:30.014Z,1001.44
2018-11-25T00:53:10.479Z,1001.43
2018-11-25T00:53:50.818Z,1001.43
2018-11-25T00:54:31.154Z,1001.44
2018-11-25T00:55:11.607Z,1001.44
2018-11-25T00:55:51.978Z,1001.42
2018-11-25T00:56:32.399Z,1001.41
2018-11-25T00:57:12.773Z,1001.42
2018-11-25T00:57:53.196Z,1001.4
2018-11-25T00:58:33.615Z,1001.4
2018-11-25T00:59:13.994Z,1001.43
2018-11-25T00:59:54.361Z,1001.42
2018-11-25T01:00:34.732Z,1001.38
2018-11-25T01:01:15.128Z,1001.41
2018-11-25T01:01:55.591Z,1001.41
2018-11-25T01:02:36.019Z,1001.4
2018-11-25T01:03:16.343Z,1001.34
2018-11-25T01:03:56.681Z,1001.37
2018-11-25T01:04:37.091Z,1001.37
2018-11-25T01:05:17.417Z,1001.36
2018-11-25T01:05:57.933Z,1001.37
2018-11-25T01:06:38.303Z,1001.37
2018-11-25T01:07:18.664Z,1001.35
2018-11-25T01:07:58.983Z,1001.35
2018-11-25T01:08:39.410Z,1001.38
2018-11-25T01:09:19.850Z,1001.34
2018-11-25T01:10:00.210Z,1001.37
2018-11-25T01:10:40.638Z,1001.37
2018-11-25T01:11:20.985Z,1001.4
2018-11-25T01:12:01.446Z,1001.39
2018-11-25T01:12:41.835Z,1001.41
2018-11-25T01:13:22.282Z,1001.41
2018-11-25T01:14:02.676Z,1001.39
2018-11-25T01:14:43.023Z,1001.37
2018-11-25T01:15:23.522Z,1001.4
2018-11-25T01:16:03.870Z,1001.41
2018-11-25T01:16:44.295Z,1001.43
2018-11-25T01:17:24.695Z,1001.44
2018-11-25T01:18:05.119Z,1001.42
2018-11-25T01:18:45.477Z,1001.38
2018-11-25T01:19:25.870Z,1001.38
2018-11-25T01:20:06.265Z,1001.36
2018-11-25T01:20:46.663Z,1001.38
2018-11-25T01:21:27.037Z,1001.36
2018-11-25T01:22:07.436Z,1001.39
2018-11-25T01:22:47.866Z,1001.36
2018-11-25T01:23:28.277Z,1001.35
2018-11-25T01:24:08.609Z,1001.38
2018-11-25T01:24:49.036Z,1001.37
2018-11-25T01:25:29.445Z,1001.38
2018-11-25T01:26:09.869Z,1001.38
2018-11-25T01:26:50.210Z,1001.39
2018-11-25T01:27:30.581Z,1001.42
2018-11-25T01:28:11.087Z,1001.42
2018-11-25T01:28:51.451Z,1001.42
2018-11-25T01:29:31.791Z,1001.44
2018-11-25T01:30:12.206Z,1001.45
2018-11-25T01:30:52.663Z,1001.4
2018-11-25T01:31:32.936Z,1001.43
2018-11-25T01:32:13.305Z,1001.45
2018-11-25T01:32:53.765Z,1001.43
2018-11-25T01:33:34.136Z,1001.39
2018-11-25T01:34:14.575Z,1001.43
2018-11-25T01:35:00.843Z,1001.46
2018-11-25T01:35:35.479Z,1001.47
2018-11-25T01:36:15.838Z,1001.47
2018-11-25T01:36:56.267Z,1001.48
2018-11-25T01:37:36.594Z,1001.48
2018-11-25T01:38:16.989Z,1001.44
2018-11-25T01:38:57.381Z,1001.49
2018-11-25T01:39:37.745Z,1001.45
2018-11-25T01:40:18.170Z,1001.48
2018-11-25T01:40:58.566Z,1001.48
2018-11-25T01:41:38.993Z,1001.48
2018-11-25T01:42:19.383Z,1001.47
2018-11-25T01:42:59.823Z,1001.46
2018-11-25T01:43:40.185Z,1001.5
2018-11-25T01:44:20.648Z,1001.47
2018-11-25T01:45:00.993Z,1001.5
2018-11-25T01:45:41.451Z,1001.48
2018-11-25T01:46:21.773Z,1001.43
2018-11-25T01:47:02.238Z,1001.46
2018-11-25T01:47:42.581Z,1001.46
2018-11-25T01:48:23.022Z,1001.44
2018-11-25T01:49:03.371Z,1001.46
2018-11-25T01:49:43.842Z,1001.46
2018-11-25T01:50:24.350Z,1001.48
2018-11-25T01:51:04.662Z,1001.46
2018-11-25T01:51:45.212Z,1001.46
2018-11-25T01:52:25.586Z,1001.43
2018-11-25T01:53:05.956Z,1001.48
2018-11-25T01:53:46.302Z,1001.45
2018-11-25T01:54:26.781Z,1001.46
2018-11-25T01:55:07.150Z,1001.43
2018-11-25T01:55:47.547Z,1001.46
2018-11-25T01:56:28.042Z,1001.44
2018-11-25T01:57:08.429Z,1001.45
2018-11-25T01:57:48.808Z,1001.44
2018-11-25T01:58:29.308Z,1001.44
2018-11-25T01:59:09.715Z,1001.45
2018-11-25T01:59:50.054Z,1001.44
2018-11-25T02:00:30.472Z,1001.47
2018-11-25T02:01:10.937Z,1001.44
2018-11-25T02:01:51.381Z,1001.45
2018-11-25T02:02:31.712Z,1001.46
2018-11-25T02:03:12.105Z,1001.39
2018-11-25T02:03:52.561Z,1001.4
2018-11-25T02:04:32.946Z,1001.41
2018-11-25T02:05:13.287Z,1001.45
2018-11-25T02:05:53.707Z,1001.38
2018-11-25T02:06:34.104Z,1001.42
2018-11-25T02:07:14.543Z,1001.42
2018-11-25T02:07:54.925Z,1001.42
2018-11-25T02:08:35.354Z,1001.4
2018-11-25T02:09:15.703Z,1001.4
2018-11-25T02:09:56.085Z,1001.4
2018-11-25T02:10:36.497Z,1001.41
2018-11-25T02:11:16.978Z,1001.39
2018-11-25T02:11:57.430Z,1001.36
2018-11-25T02:12:37.784Z,1001.4
2018-11-25T02:13:18.288Z,1001.37
2018-11-25T02:13:58.607Z,1001.33
2018-11-25T02:14:38.968Z,1001.39
2018-11-25T02:15:19.387Z,1001.35
2018-11-25T02:15:59.793Z,1001.34
2018-11-25T02:16:40.196Z,1001.34
2018-11-25T02:17:20.760Z,1001.35
2018-11-25T02:18:01.205Z,1001.3
2018-11-25T02:18:41.613Z,1001.34
2018-11-25T02:19:22.068Z,1001.31
2018-11-25T02:20:02.552Z,1001.29
2018-11-25T02:20:42.934Z,1001.29
2018-11-25T02:21:23.331Z,1001.29
2018-11-25T02:22:03.733Z,1001.28
2018-11-25T02:22:44.125Z,1001.27
2018-11-25T02:23:24.537Z,1001.28
2018-11-25T02:24:05.031Z,1001.26
2018-11-25T02:24:45.414Z,1001.2
2018-11-25T02:25:25.809Z,1001.24
2018-11-25T02:26:06.473Z,1001.25
2018-11-25T02:26:46.870Z,1001.23
2018-11-25T02:27:27.364Z,1001.25
2018-11-25T02:28:07.748Z,1001.22
2018-11-25T02:28:48.556Z,1001.2
2018-11-25T02:29:28.563Z,1001.23
2018-11-25T02:30:08.996Z,1001.23
2018-11-25T02:30:49.342Z,1001.2
2018-11-25T02:31:29.929Z,1001.21
2018-11-25T02:32:10.207Z,1001.22
2018-11-25T02:32:50.680Z,1001.16
2018-11-25T02:33:31.121Z,1001.14
2018-11-25T02:34:11.490Z,1001.17
2018-11-25T02:34:51.880Z,1001.16
2018-11-25T02:35:32.439Z,1001.13
2018-11-25T02:36:12.724Z,1001.12
2018-11-25T02:36:53.243Z,1001.11
2018-11-25T02:37:33.582Z,1001.09
2018-11-25T02:38:13.986Z,1001.12
2018-11-25T02:38:54.380Z,1001.06
2018-11-25T02:39:34.741Z,1001.02
2018-11-25T02:40:15.142Z,1001.04
2018-11-25T02:40:55.607Z,1001.08
2018-11-25T02:41:36.075Z,1001.03
2018-11-25T02:42:16.417Z,1001.07
2018-11-25T02:42:56.825Z,1001.05
2018-11-25T02:43:37.216Z,1001.03
2018-11-25T02:44:17.547Z,1001.05
2018-11-25T02:44:57.940Z,1001.03
2018-11-25T02:45:38.447Z,1001.07
2018-11-25T02:46:18.962Z,1001.06
2018-11-25T02:46:59.254Z,1001.03
2018-11-25T02:47:39.710Z,1001.04
2018-11-25T02:48:20.076Z,1001.05
2018-11-25T02:49:00.501Z,1001.01
2018-11-25T02:49:40.958Z,1001.03
2018-11-25T02:50:21.295Z,1001.02
2018-11-25T02:51:01.762Z,1001.04
2018-11-25T02:51:42.137Z,1001.01
2018-11-25T02:52:22.531Z,1001.01
2018-11-25T02:53:02.816Z,1001.02
2018-11-25T02:53:43.360Z,1001.02
2018-11-25T02:54:23.618Z,1001.02
2018-11-25T02:55:04.072Z,1001.01
2018-11-25T02:55:44.580Z,1001.06
2018-11-25T02:56:24.961Z,1001.03
2018-11-25T02:57:05.464Z,1001.03
2018-11-25T02:57:45.841Z,1001.07
2018-11-25T02:58:26.227Z,1001.09
2018-11-25T02:59:06.645Z,1001.09
2018-11-25T02:59:47.077Z,1001.1
2018-11-25T03:00:27.473Z,1001.13
2018-11-25T03:01:07.850Z,1001.17
2018-11-25T03:01:48.279Z,1001.14
2018-11-25T03:02:28.689Z,1001.14
2018-11-25T03:03:09.119Z,1001.12
2018-11-25T03:03:49.469Z,1001.16
2018-11-25T03:04:29.883Z,1001.12
2018-11-25T03:05:10.416Z,1001.13
2018-11-25T03:05:50.878Z,1001.13
2018-11-25T03:06:31.175Z,1001.16
2018-11-25T03:07:11.655Z,1001.15
2018-11-25T03:07:51.991Z,1001.15
2018-11-25T03:08:32.456Z,1001.14
2018-11-25T03:09:12.839Z,1001.17
2018-11-25T03:09:53.203Z,1001.1
2018-11-25T03:10:33.601Z,1001.08
2018-11-25T03:11:14.027Z,1001.06
2018-11-25T03:11:54.409Z,1001.05
2018-11-25T03:12:34.876Z,1001.04
2018-11-25T03:13:15.307Z,1001.02
2018-11-25T03:13:55.796Z,1001.01
2018-11-25T03:14:36.174Z,1001.05
2018-11-25T03:15:16.493Z,1000.99
2018-11-25T03:15:56.926Z,1001.04
2018-11-25T03:16:37.387Z,1001
2018-11-25T03:17:17.734Z,1000.98
2018-11-25T03:17:58.324Z,1001.02
2018-11-25T03:18:39.391Z,1001.05
2018-11-25T03:19:19.752Z,1001.04
2018-11-25T03:20:00.165Z,1001.07
2018-11-25T03:20:40.638Z,1001.07
2018-11-25T03:21:21.234Z,1001.08
2018-11-25T03:22:01.738Z,1001.14
2018-11-25T03:22:42.562Z,1001.11
2018-11-25T03:23:22.655Z,1001.08
2018-11-25T03:24:02.971Z,1001.11
2018-11-25T03:24:43.519Z,1001.11
2018-11-25T03:25:23.786Z,1001.09
2018-11-25T03:26:04.241Z,1001.08
2018-11-25T03:26:44.652Z,1001.08
2018-11-25T03:27:25.100Z,1001.06
2018-11-25T03:28:05.491Z,1001.04
2018-11-25T03:28:46.563Z,1001.04
2018-11-25T03:29:26.535Z,1001.07
2018-11-25T03:30:06.856Z,1001.01
2018-11-25T03:30:47.475Z,1001.03
2018-11-25T03:31:28.010Z,1001.09
2018-11-25T03:32:08.373Z,1001.04
2018-11-25T03:32:48.745Z,1001.05
2018-11-25T03:33:29.224Z,1001.04
2018-11-25T03:34:09.666Z,1001.04
2018-11-25T03:34:50.049Z,1001.04
2018-11-25T03:35:30.479Z,1001.03
2018-11-25T03:36:11.100Z,1000.99
2018-11-25T03:36:51.706Z,1001.02
2018-11-25T03:37:31.941Z,1000.97
2018-11-25T03:38:12.404Z,1000.98
2018-11-25T03:38:52.855Z,1001.03
2018-11-25T03:39:33.306Z,1000.99
2018-11-25T03:40:13.730Z,1001.01
2018-11-25T03:40:54.173Z,1000.99
2018-11-25T03:41:34.583Z,1000.95
2018-11-25T03:42:14.993Z,1000.95
2018-11-25T03:42:55.460Z,1001
2018-11-25T03:43:35.874Z,1000.96
2018-11-25T03:44:16.202Z,1000.96
2018-11-25T03:44:56.716Z,1000.98
2018-11-25T03:45:37.117Z,1001
2018-11-25T03:46:17.419Z,1001.01
2018-11-25T03:46:58.015Z,1000.97
2018-11-25T03:47:38.321Z,1000.97
2018-11-25T03:48:18.899Z,1000.95
2018-11-25T03:48:59.404Z,1000.98
2018-11-25T03:49:39.660Z,1000.95
2018-11-25T03:50:20.149Z,1001.03
2018-11-25T03:51:00.662Z,1001.04
2018-11-25T03:51:41.202Z,1001.01
2018-11-25T03:52:21.657Z,1001.01
2018-11-25T03:53:02.141Z,1001.03
2018-11-25T03:53:42.433Z,1001.02
2018-11-25T03:54:23.005Z,1001.07
2018-11-25T03:55:03.385Z,1001.05
2018-11-25T03:55:43.954Z,1001.05
2018-11-25T03:56:24.396Z,1001.07
2018-11-25T03:57:04.738Z,1001.08
2018-11-25T03:57:45.118Z,1001.07
2018-11-25T03:58:25.595Z,1001.06
2018-11-25T03:59:06.051Z,1001.06
2018-11-25T03:59:46.611Z,1001.04
2018-11-25T04:00:27.129Z,1001.02
2018-11-25T04:01:07.787Z,1001.03
2018-11-25T04:01:48.277Z,1001.02
2018-11-25T04:02:28.923Z,1001.01
2018-11-25T04:03:09.132Z,1001.03
2018-11-25T04:03:49.564Z,1000.98
2018-11-25T04:04:30.141Z,1001.01
2018-11-25T04:05:10.622Z,1000.99
2018-11-25T04:05:51.039Z,1000.97
2018-11-25T04:06:31.443Z,1001
2018-11-25T04:07:11.899Z,1000.97
2018-11-25T04:07:52.245Z,1000.99
2018-11-25T04:08:32.823Z,1001.02
2018-11-25T04:09:13.332Z,1001
2018-11-25T04:09:53.749Z,1001.01
2018-11-25T04:10:34.155Z,1001
2018-11-25T04:11:14.541Z,1001
2018-11-25T04:11:55.100Z,1001.03
2018-11-25T04:12:35.558Z,1001.02
2018-11-25T04:13:16.648Z,1001.07
2018-11-25T04:13:57.011Z,1001.05
2018-11-25T04:14:37.567Z,1001.05
2018-11-25T04:15:17.959Z,1001.08
2018-11-25T04:15:58.386Z,1001.07
2018-11-25T04:16:38.903Z,1001.09
2018-11-25T04:17:19.274Z,1001.08
2018-11-25T04:17:59.893Z,1001.11
2018-11-25T04:18:40.311Z,1001.09
2018-11-25T04:19:20.772Z,1001.1
2018-11-25T04:20:01.175Z,1001.09
2018-11-25T04:20:41.668Z,1001.12
2018-11-25T04:21:22.091Z,1001.09
2018-11-25T04:22:02.503Z,1001.13
2018-11-25T04:22:42.953Z,1001.15
2018-11-25T04:23:23.417Z,1001.11
2018-11-25T04:24:03.937Z,1001.13
2018-11-25T04:24:44.506Z,1001.09
2018-11-25T04:25:24.960Z,1001.14
2018-11-25T04:26:05.385Z,1001.17
2018-11-25T04:26:45.860Z,1001.1
2018-11-25T04:27:26.192Z,1001.13
2018-11-25T05:06:45.615Z,1000.92
2018-11-25T05:07:27.791Z,1000.97
2018-11-25T05:08:08.028Z,1000.97
2018-11-25T05:08:48.509Z,1000.95
2018-11-25T05:09:28.848Z,1000.88
2018-11-25T05:10:09.251Z,1000.9
2018-11-25T05:10:49.567Z,1000.87
2018-11-25T05:11:29.988Z,1000.83
2018-11-25T05:12:10.379Z,1000.78
2018-11-25T05:12:51.694Z,1000.82
2018-11-25T05:13:32.045Z,1000.79
2018-11-25T05:14:12.444Z,1000.82
2018-11-25T05:14:52.832Z,1000.79
2018-11-25T05:15:33.301Z,1000.8
2018-11-25T05:16:13.663Z,1000.81
2018-11-25T05:16:54.068Z,1000.81
2018-11-25T05:17:34.373Z,1000.81
2018-11-25T05:18:14.744Z,1000.81
2018-11-25T05:18:55.142Z,1000.82
2018-11-25T05:19:35.636Z,1000.81
2018-11-25T05:20:15.892Z,1000.83
2018-11-25T05:20:56.372Z,1000.78
2018-11-25T05:21:36.715Z,1000.83
2018-11-25T05:22:17.112Z,1000.84
2018-11-25T05:22:57.465Z,1000.79
2018-11-25T05:23:37.882Z,1000.83
2018-11-25T05:24:18.292Z,1000.82
2018-11-25T05:24:58.677Z,1000.81
2018-11-25T05:25:39.048Z,1000.8
2018-11-25T05:26:19.449Z,1000.83
2018-11-25T05:26:59.931Z,1000.84
2018-11-25T05:27:40.282Z,1000.82
2018-11-25T05:28:20.738Z,1000.88
2018-11-25T05:29:01.137Z,1000.89
2018-11-25T05:29:41.569Z,1000.9
2018-11-25T05:30:21.894Z,1000.88
2018-11-25T05:31:02.338Z,1000.88
2018-11-25T05:31:42.658Z,1000.88
2018-11-25T05:33:39.290Z,1000.85
2018-11-25T05:34:19.342Z,1000.85
2018-11-25T05:34:59.725Z,1000.84
2018-11-25T05:35:40.139Z,1000.84
2018-11-25T05:36:20.578Z,1000.84
2018-11-25T05:37:00.961Z,1000.85
2018-11-25T05:37:41.355Z,1000.82
2018-11-25T05:38:21.836Z,1000.87
2018-11-25T05:39:02.187Z,1000.88
2018-11-25T05:39:42.604Z,1000.88
2018-11-25T05:40:22.958Z,1000.87
2018-11-25T05:41:03.467Z,1000.91
2018-11-25T05:41:43.830Z,1000.88
2018-11-25T05:42:24.300Z,1000.93
2018-11-25T05:43:04.668Z,1000.93
2018-11-25T05:43:45.158Z,1000.91
2018-11-25T05:44:25.442Z,1000.93
2018-11-25T05:45:05.883Z,1000.97
2018-11-25T05:45:46.264Z,1000.93
2018-11-25T05:47:47.742Z,1000.95
2018-11-25T05:48:44.546Z,1000.94
2018-11-25T05:49:39.660Z,1000.9
2018-11-25T05:50:31.749Z,1000.9
2018-11-25T05:51:24.477Z,1000.89
2018-11-25T05:52:16.831Z,1000.9
2018-11-25T05:53:10.261Z,1000.87
2018-11-25T05:54:02.871Z,1000.88
2018-11-25T05:54:55.614Z,1000.84
2018-11-25T05:55:47.787Z,1000.85
2018-11-25T05:56:40.855Z,1000.86
2018-11-25T05:57:34.379Z,1000.87
2018-11-25T05:58:27.272Z,1000.87
2018-11-25T05:59:21.588Z,1000.87
2018-11-25T06:00:14.324Z,1000.86
2018-11-25T06:01:06.440Z,1000.86
2018-11-25T06:01:58.805Z,1000.84
2018-11-25T06:02:51.202Z,1000.86
2018-11-25T06:03:43.370Z,1000.83
2018-11-25T06:04:36.298Z,1000.85
2018-11-25T06:05:31.239Z,1000.81
2018-11-25T06:06:23.689Z,1000.81
2018-11-25T06:07:17.294Z,1000.82
2018-11-25T06:08:11.363Z,1000.83
2018-11-25T06:09:04.443Z,1000.78
2018-11-25T06:09:58.759Z,1000.82
2018-11-25T06:10:52.920Z,1000.8
2018-11-25T06:11:45.773Z,1000.82
2018-11-25T06:12:39.346Z,1000.8
2018-11-25T06:13:32.514Z,1000.81
2018-11-25T06:14:25.387Z,1000.77
2018-11-25T06:15:18.613Z,1000.8
2018-11-25T06:16:13.777Z,1000.8
2018-11-25T06:17:09.069Z,1000.81
2018-11-25T06:18:02.457Z,1000.84
2018-11-25T06:18:55.449Z,1000.85
2018-11-25T06:19:48.255Z,1000.87
2018-11-25T06:20:41.474Z,1000.87
2018-11-25T06:21:34.014Z,1000.91
2018-11-25T06:22:26.865Z,1000.89
2018-11-25T06:23:20.665Z,1000.92
2018-11-25T06:24:14.869Z,1000.9
2018-11-25T06:25:08.958Z,1000.92
2018-11-25T06:26:03.479Z,1000.94
2018-11-25T06:26:58.268Z,1000.98
2018-11-25T06:27:50.976Z,1000.95
2018-11-25T06:28:43.809Z,1000.98
2018-11-25T06:29:38.294Z,1000.95
2018-11-25T06:30:32.349Z,1000.98
2018-11-25T06:31:24.599Z,1000.96
2018-11-25T06:32:18.321Z,1000.97
2018-11-25T06:33:13.136Z,1000.96
2018-11-25T06:34:08.413Z,1000.99
2018-11-25T06:35:01.009Z,1000.99
2018-11-25T06:35:54.935Z,1000.98
2018-11-25T06:36:48.688Z,1000.99
2018-11-25T06:37:42.323Z,1001.01
2018-11-25T06:38:35.886Z,1001
2018-11-25T06:39:29.225Z,1001.01
2018-11-25T06:40:22.561Z,1000.97
2018-11-25T06:41:15.434Z,1000.98
2018-11-25T06:42:08.201Z,1001
2018-11-25T06:43:02.243Z,1000.98
2018-11-25T06:43:55.745Z,1000.99
2018-11-25T06:44:48.471Z,1000.99
2018-11-25T06:45:41.387Z,1001.01
2018-11-25T06:46:34.273Z,1001
2018-11-25T06:47:27.266Z,1001.02
2018-11-25T06:48:22.382Z,1001.01
2018-11-25T06:49:15.497Z,1000.99
2018-11-25T06:50:07.930Z,1000.98
2018-11-25T06:51:02.055Z,1001.02
2018-11-25T06:51:55.099Z,1000.97
2018-11-25T06:52:47.408Z,1000.95
2018-11-25T06:53:40.649Z,1000.94
2018-11-25T06:54:36.763Z,1000.96
2018-11-25T06:55:28.967Z,1000.96
2018-11-25T06:56:27.331Z,1000.93
2018-11-25T06:57:14.903Z,1000.95
2018-11-25T06:58:07.546Z,1000.94
2018-11-25T06:58:59.867Z,1000.97
2018-11-25T06:59:53.384Z,1000.96
2018-11-25T07:00:46.888Z,1000.96
2018-11-25T07:01:41.715Z,1000.95
2018-11-25T07:02:34.820Z,1000.98
2018-11-25T07:03:28.102Z,1000.99
2018-11-25T07:04:21.816Z,1001.01
2018-11-25T07:05:14.555Z,1001.01
2018-11-25T07:06:07.038Z,1001
2018-11-25T07:07:00.326Z,1000.99
2018-11-25T07:07:53.231Z,1001
2018-11-25T07:08:45.777Z,1000.99
2018-11-25T07:09:31.337Z,1000.98
2018-11-25T07:10:12.549Z,1000.98
2018-11-25T07:10:52.833Z,1000.99
2018-11-25T07:11:34.008Z,1001
2018-11-25T07:12:15.283Z,1001
2018-11-25T07:12:56.551Z,1000.97
2018-11-25T07:13:37.567Z,1000.94
2018-11-25T07:14:20.036Z,1001.02
2018-11-25T07:15:01.476Z,1000.96
2018-11-25T07:15:42.354Z,1000.99
2018-11-25T07:16:23.483Z,1000.99
2018-11-25T07:17:06.552Z,1001
2018-11-25T07:17:49.041Z,1000.99
2018-11-25T07:18:31.853Z,1001.05
2018-11-25T07:19:14.169Z,1001.04
2018-11-25T07:19:56.592Z,1001
2018-11-25T07:20:39.485Z,1001.05
2018-11-25T07:21:19.861Z,1001.03
2018-11-25T07:22:03.288Z,1001.05
2018-11-25T07:22:43.791Z,1001.06
2018-11-25T07:23:24.320Z,1001.07
2018-11-25T07:26:07.069Z,1001.05
2018-11-25T07:27:01.815Z,1001.03
2018-11-25T07:27:55.232Z,1001.06
2018-11-25T07:28:52.065Z,1001.1
2018-11-25T07:29:50.546Z,1001.09
2018-11-25T07:30:44.505Z,1001.11
2018-11-25T07:31:39.831Z,1001.1
2018-11-25T07:32:37.135Z,1001.1
2018-11-25T07:33:32.472Z,1001.08
2018-11-25T07:34:25.794Z,1001.09
2018-11-25T07:35:18.916Z,1001.06
2018-11-25T07:36:11.353Z,1001.07
2018-11-25T07:39:02.044Z,1001.07
2018-11-25T07:39:43.419Z,1001.05
2018-11-25T07:40:24.060Z,1001.03
2018-11-25T07:41:04.694Z,1001.04
2018-11-25T07:41:45.132Z,1001.05
2018-11-25T07:42:25.561Z,1001.05
2018-11-25T07:43:05.945Z,1001.04
2018-11-25T07:43:46.335Z,1001.03
2018-11-25T07:44:26.727Z,1001.04
2018-11-25T07:45:07.086Z,1001.03
2018-11-25T07:45:47.471Z,1001.05
2018-11-25T07:46:27.882Z,1001.07
2018-11-25T07:47:08.356Z,1001.06
2018-11-25T07:47:48.743Z,1001.05
2018-11-25T07:48:29.168Z,1001.09
2018-11-25T07:49:09.784Z,1001.04
2018-11-25T07:49:50.118Z,1001.06
2018-11-25T07:50:30.517Z,1001.03
2018-11-25T07:51:10.900Z,1001.04
2018-11-25T07:51:51.378Z,1001.03
2018-11-25T07:52:31.772Z,1000.99
2018-11-25T07:53:12.169Z,1001
2018-11-25T07:53:52.681Z,1001
2018-11-25T07:54:33.066Z,1000.96
2018-11-25T07:55:13.487Z,1000.98
2018-11-25T07:55:54.026Z,1000.98
2018-11-25T07:56:36.284Z,1000.93
2018-11-25T07:57:16.883Z,1000.95
2018-11-25T07:57:57.232Z,1000.94
2018-11-25T07:58:37.593Z,1000.94
2018-11-25T07:59:17.969Z,1000.92
2018-11-25T07:59:58.487Z,1000.87
2018-11-25T08:00:38.916Z,1000.92
2018-11-25T08:01:19.293Z,1000.89
2018-11-25T08:01:59.645Z,1000.92
2018-11-25T08:02:41.513Z,1000.91
2018-11-25T08:03:21.290Z,1000.91
2018-11-25T08:04:01.693Z,1000.93
2018-11-25T08:04:42.144Z,1000.93
2018-11-25T08:05:22.719Z,1000.93
2018-11-25T08:06:03.033Z,1000.91
2018-11-25T08:06:43.831Z,1000.89
2018-11-25T08:07:24.208Z,1000.88
2018-11-25T08:08:04.619Z,1000.9
2018-11-25T08:08:45.659Z,1000.9
2018-11-25T08:09:25.420Z,1000.85
2018-11-25T08:10:06.061Z,1000.88
2018-11-25T08:10:46.314Z,1000.84
2018-11-25T08:11:26.639Z,1000.87
2018-11-25T08:12:07.166Z,1000.84
2018-11-25T08:12:47.487Z,1000.81
2018-11-25T08:13:27.868Z,1000.84
2018-11-25T08:14:08.263Z,1000.8
2018-11-25T08:14:49.408Z,1000.81
2018-11-25T08:15:29.901Z,1000.81
2018-11-25T08:16:10.324Z,1000.79
2018-11-25T08:16:50.789Z,1000.8
2018-11-25T08:17:31.889Z,1000.78
2018-11-25T08:18:12.336Z,1000.81
2018-11-25T08:18:52.771Z,1000.83
2018-11-25T08:19:33.146Z,1000.82
2018-11-25T08:20:13.566Z,1000.85
2018-11-25T08:20:53.959Z,1000.87
2018-11-25T08:21:34.328Z,1000.84
2018-11-25T08:24:10.734Z,1000.88
2018-11-25T08:25:03.348Z,1000.95
2018-11-25T08:25:57.105Z,1000.94
2018-11-25T08:26:50.313Z,1000.93
2018-11-25T08:27:43.616Z,1000.95
2018-11-25T08:28:38.855Z,1000.95
2018-11-25T08:29:36.259Z,1000.93
2018-11-25T08:30:28.863Z,1000.96
2018-11-25T08:31:22.352Z,1000.96
2018-11-25T08:32:15.049Z,1000.94
2018-11-25T08:33:08.107Z,1000.92
2018-11-25T08:34:03.452Z,1000.93
2018-11-25T08:34:57.858Z,1000.94
2018-11-25T08:35:53.796Z,1000.93
2018-11-25T08:36:47.909Z,1000.92
2018-11-25T08:37:42.853Z,1000.91
2018-11-25T08:38:35.180Z,1000.95
2018-11-25T08:39:31.027Z,1000.92
2018-11-25T08:40:25.656Z,1000.92
2018-11-25T08:41:20.339Z,1000.91
2018-11-25T08:42:17.440Z,1000.92
2018-11-25T08:43:18.584Z,1000.97
2018-11-25T08:44:15.582Z,1000.92
2018-11-25T08:45:09.909Z,1000.89
2018-11-25T08:46:04.562Z,1000.9
2018-11-25T08:46:59.745Z,1000.88
2018-11-25T08:47:52.735Z,1000.85
2018-11-25T08:48:51.692Z,1000.84
2018-11-25T08:49:46.268Z,1000.87
2018-11-25T08:50:39.610Z,1000.86
2018-11-25T08:51:33.704Z,1000.88
2018-11-25T08:52:27.725Z,1000.89
2018-11-25T08:53:24.480Z,1000.86
2018-11-25T08:54:29.479Z,1000.87
2018-11-25T08:55:23.552Z,1000.87
2018-11-25T08:56:17.865Z,1000.87
2018-11-25T08:57:11.233Z,1000.88
2018-11-25T08:58:05.637Z,1000.9
2018-11-25T08:59:06.904Z,1000.88
2018-11-25T09:00:04.703Z,1000.89
2018-11-25T09:03:02.830Z,1000.96
2018-11-25T09:04:07.494Z,1000.92
2018-11-25T09:05:07.449Z,1000.94
2018-11-25T09:06:05.234Z,1000.91
2018-11-25T09:12:22.944Z,1000.89
2018-11-25T09:13:19.062Z,1000.9
2018-11-25T09:14:12.849Z,1000.92
2018-11-25T09:15:07.469Z,1000.94
2018-11-25T09:15:59.897Z,1000.99
2018-11-25T09:16:54.740Z,1000.96
2018-11-25T09:17:48.872Z,1000.96
2018-11-25T09:18:43.841Z,1000.99
2018-11-25T09:19:41.097Z,1000.98
2018-11-25T09:20:33.380Z,1000.96
2018-11-25T09:21:25.975Z,1000.99
2018-11-25T09:22:24.636Z,1001
2018-11-25T09:23:18.288Z,1000.99
2018-11-25T09:24:11.966Z,1000.96
2018-11-25T09:25:04.506Z,1000.97
2018-11-25T09:26:00.311Z,1000.95
2018-11-25T09:26:54.053Z,1000.97
2018-11-25T09:27:47.430Z,1000.93
2018-11-25T09:28:40.874Z,1000.96
2018-11-25T09:29:33.253Z,1000.91
2018-11-25T09:30:27.782Z,1000.91
2018-11-25T09:31:20.998Z,1000.83
2018-11-25T09:32:22.650Z,1000.87
2018-11-25T09:33:08.627Z,1000.84
2018-11-25T09:34:03.275Z,1000.84
2018-11-25T09:35:03.321Z,1000.83
2018-11-25T09:35:58.131Z,1000.82
2018-11-25T09:36:58.139Z,1000.83
2018-11-25T09:37:51.179Z,1000.85
2018-11-25T09:38:44.315Z,1000.83
2018-11-25T09:39:39.281Z,1000.82
2018-11-25T09:40:42.956Z,1000.86
2018-11-25T09:41:38.927Z,1000.87
2018-11-25T09:42:43.918Z,1000.83
2018-11-25T09:43:39.855Z,1000.85
2018-11-25T09:44:35.952Z,1000.86
2018-11-25T09:47:08.446Z,1000.81
2018-11-25T09:47:48.753Z,1000.86
2018-11-25T09:48:29.168Z,1000.79
2018-11-25T09:49:09.604Z,1000.78
2018-11-25T09:49:49.990Z,1000.78
2018-11-25T09:50:30.383Z,1000.81
2018-11-25T09:51:10.796Z,1000.81